Terminal Aerodrome Forecast
Issued by NWS

Home | Current Version | Previous Version | Text Only | Print | Product List | Glossary On
Versions: 1 2 3 4 5 6 7 8 9 10 11 12 13 14 15 16 17 18 19 20 21 22 23 24 25 26
000
FTUS42 KCAE 302031 AAB
TAFOGB
TAF AMD
KOGB 302031Z 3021/0118 24012G19KT P6SM VCTS BKN035CB
      TEMPO 3021/3022 27020G40KT 2SM TSRA SCT015CB BKN035
     FM302200 22009KT P6SM VCTS SCT025 BKN045CB
     FM010000 22008KT P6SM VCTS BKN050CB
     FM010300 22005KT P6SM BKN100=

USA.gov is the U.S. government's official web portal to all federal, state and local government web resources and services.